sensor_id;sensor_type;location;lat;lon;timestamp;P1;durP1;ratioP1;P2;durP2;ratioP2
64932;SDS011;51446;53.850;10.662;2023-06-22T00:00:42;4.10;;;2.53;;
64932;SDS011;51446;53.850;10.662;2023-06-22T00:03:08;4.15;;;2.70;;
64932;SDS011;51446;53.850;10.662;2023-06-22T00:05:34;3.43;;;2.43;;
64932;SDS011;51446;53.850;10.662;2023-06-22T00:08:01;3.73;;;2.50;;
64932;SDS011;51446;53.850;10.662;2023-06-22T00:10:29;4.50;;;2.70;;
64932;SDS011;51446;53.850;10.662;2023-06-22T00:12:54;4.30;;;2.77;;
64932;SDS011;51446;53.850;10.662;2023-06-22T00:15:19;6.27;;;2.63;;
64932;SDS011;51446;53.850;10.662;2023-06-22T00:17:45;3.93;;;2.70;;
64932;SDS011;51446;53.850;10.662;2023-06-22T00:20:10;5.43;;;2.83;;
64932;SDS011;51446;53.850;10.662;2023-06-22T00:22:36;4.57;;;2.97;;
64932;SDS011;51446;53.850;10.662;2023-06-22T00:25:04;3.38;;;2.60;;
64932;SDS011;51446;53.850;10.662;2023-06-22T00:27:31;5.35;;;2.80;;
64932;SDS011;51446;53.850;10.662;2023-06-22T00:29:56;3.70;;;2.43;;
64932;SDS011;51446;53.850;10.662;2023-06-22T00:32:21;5.10;;;2.97;;
64932;SDS011;51446;53.850;10.662;2023-06-22T00:34:47;5.20;;;3.17;;
64932;SDS011;51446;53.850;10.662;2023-06-22T00:37:12;6.43;;;3.00;;
64932;SDS011;51446;53.850;10.662;2023-06-22T00:39:37;6.77;;;2.90;;
64932;SDS011;51446;53.850;10.662;2023-06-22T00:42:03;4.50;;;2.60;;
64932;SDS011;51446;53.850;10.662;2023-06-22T00:44:28;3.90;;;2.47;;
64932;SDS011;51446;53.850;10.662;2023-06-22T00:46:53;3.40;;;2.90;;
64932;SDS011;51446;53.850;10.662;2023-06-22T00:49:19;6.10;;;2.90;;
64932;SDS011;51446;53.850;10.662;2023-06-22T00:51:44;4.30;;;3.00;;
64932;SDS011;51446;53.850;10.662;2023-06-22T00:54:10;4.35;;;2.78;;
64932;SDS011;51446;53.850;10.662;2023-06-22T00:56:38;4.60;;;3.00;;
64932;SDS011;51446;53.850;10.662;2023-06-22T00:59:05;4.10;;;2.70;;
64932;SDS011;51446;53.850;10.662;2023-06-22T01:01:31;3.85;;;2.78;;
64932;SDS011;51446;53.850;10.662;2023-06-22T01:03:57;5.15;;;3.15;;
64932;SDS011;51446;53.850;10.662;2023-06-22T01:06:26;4.73;;;3.00;;
64932;SDS011;51446;53.850;10.662;2023-06-22T01:09:06;4.63;;;3.08;;
64932;SDS011;51446;53.850;10.662;2023-06-22T01:11:41;7.15;;;3.05;;
64932;SDS011;51446;53.850;10.662;2023-06-22T01:14:15;4.68;;;2.70;;
64932;SDS011;51446;53.850;10.662;2023-06-22T01:16:44;3.78;;;3.08;;
64932;SDS011;51446;53.850;10.662;2023-06-22T01:19:20;3.37;;;2.93;;
64932;SDS011;51446;53.850;10.662;2023-06-22T01:22:07;5.32;;;3.13;;
64932;SDS011;51446;53.850;10.662;2023-06-22T01:24:47;3.80;;;2.50;;
64932;SDS011;51446;53.850;10.662;2023-06-22T01:30:02;4.93;;;2.97;;
64932;SDS011;51446;53.850;10.662;2023-06-22T01:32:30;3.97;;;2.63;;
64932;SDS011;51446;53.850;10.662;2023-06-22T01:35:00;5.03;;;2.97;;
64932;SDS011;51446;53.850;10.662;2023-06-22T01:37:28;3.63;;;2.83;;
64932;SDS011;51446;53.850;10.662;2023-06-22T01:39:57;4.28;;;3.40;;
64932;SDS011;51446;53.850;10.662;2023-06-22T01:42:23;5.40;;;2.78;;
64932;SDS011;51446;53.850;10.662;2023-06-22T01:44:49;4.63;;;3.23;;
64932;SDS011;51446;53.850;10.662;2023-06-22T01:47:16;3.42;;;2.88;;
64932;SDS011;51446;53.850;10.662;2023-06-22T01:49:42;3.15;;;2.70;;
64932;SDS011;51446;53.850;10.662;2023-06-22T01:52:08;3.30;;;2.63;;
64932;SDS011;51446;53.850;10.662;2023-06-22T01:54:34;4.78;;;3.17;;
64932;SDS011;51446;53.850;10.662;2023-06-22T01:56:59;3.83;;;2.70;;
64932;SDS011;51446;53.850;10.662;2023-06-22T02:02:04;3.63;;;3.33;;
64932;SDS011;51446;53.850;10.662;2023-06-22T02:04:34;3.78;;;3.17;;
64932;SDS011;51446;53.850;10.662;2023-06-22T02:07:05;5.82;;;2.85;;
64932;SDS011;51446;53.850;10.662;2023-06-22T02:09:37;4.90;;;2.90;;
64932;SDS011;51446;53.850;10.662;2023-06-22T02:12:06;6.15;;;3.47;;
64932;SDS011;51446;53.850;10.662;2023-06-22T02:14:34;4.43;;;3.07;;
64932;SDS011;51446;53.850;10.662;2023-06-22T02:16:59;3.33;;;2.80;;
64932;SDS011;51446;53.850;10.662;2023-06-22T02:19:26;4.00;;;3.47;;
64932;SDS011;51446;53.850;10.662;2023-06-22T02:21:52;3.47;;;2.95;;
64932;SDS011;51446;53.850;10.662;2023-06-22T02:24:17;4.30;;;3.03;;
64932;SDS011;51446;53.850;10.662;2023-06-22T02:26:43;5.57;;;3.57;;
64932;SDS011;51446;53.850;10.662;2023-06-22T02:29:10;4.97;;;3.60;;
64932;SDS011;51446;53.850;10.662;2023-06-22T02:31:35;5.50;;;3.87;;
64932;SDS011;51446;53.850;10.662;2023-06-22T02:34:00;5.43;;;3.80;;
64932;SDS011;51446;53.850;10.662;2023-06-22T02:36:26;5.70;;;3.43;;
64932;SDS011;51446;53.850;10.662;2023-06-22T02:38:52;4.18;;;3.67;;
64932;SDS011;51446;53.850;10.662;2023-06-22T02:41:18;5.05;;;2.95;;
64932;SDS011;51446;53.850;10.662;2023-06-22T02:43:46;6.10;;;3.30;;
64932;SDS011;51446;53.850;10.662;2023-06-22T02:46:12;5.10;;;3.20;;
64932;SDS011;51446;53.850;10.662;2023-06-22T02:48:38;5.13;;;3.03;;
64932;SDS011;51446;53.850;10.662;2023-06-22T02:51:04;3.63;;;2.97;;
64932;SDS011;51446;53.850;10.662;2023-06-22T02:53:29;6.33;;;3.43;;
64932;SDS011;51446;53.850;10.662;2023-06-22T02:55:55;11.13;;;3.08;;
64932;SDS011;51446;53.850;10.662;2023-06-22T02:58:21;3.17;;;2.70;;
64932;SDS011;51446;53.850;10.662;2023-06-22T03:00:46;5.70;;;2.87;;
64932;SDS011;51446;53.850;10.662;2023-06-22T03:03:11;5.77;;;3.10;;
64932;SDS011;51446;53.850;10.662;2023-06-22T03:05:37;4.67;;;3.07;;
64932;SDS011;51446;53.850;10.662;2023-06-22T03:08:02;5.73;;;3.63;;
64932;SDS011;51446;53.850;10.662;2023-06-22T03:10:27;6.47;;;3.20;;
64932;SDS011;51446;53.850;10.662;2023-06-22T03:12:53;3.67;;;2.80;;
64932;SDS011;51446;53.850;10.662;2023-06-22T03:15:18;5.00;;;3.10;;
64932;SDS011;51446;53.850;10.662;2023-06-22T03:17:44;5.13;;;3.07;;
64932;SDS011;51446;53.850;10.662;2023-06-22T03:20:09;4.97;;;3.37;;
64932;SDS011;51446;53.850;10.662;2023-06-22T03:22:38;6.22;;;3.50;;
64932;SDS011;51446;53.850;10.662;2023-06-22T03:25:05;4.60;;;3.35;;
64932;SDS011;51446;53.850;10.662;2023-06-22T03:27:36;4.57;;;3.30;;
64932;SDS011;51446;53.850;10.662;2023-06-22T03:30:01;7.40;;;3.53;;
64932;SDS011;51446;53.850;10.662;2023-06-22T03:32:27;4.25;;;3.10;;
64932;SDS011;51446;53.850;10.662;2023-06-22T03:34:53;3.50;;;2.90;;
64932;SDS011;51446;53.850;10.662;2023-06-22T03:37:18;4.10;;;3.20;;
64932;SDS011;51446;53.850;10.662;2023-06-22T03:39:43;4.37;;;3.03;;
64932;SDS011;51446;53.850;10.662;2023-06-22T03:42:09;6.57;;;3.47;;
64932;SDS011;51446;53.850;10.662;2023-06-22T03:44:34;5.23;;;3.53;;
64932;SDS011;51446;53.850;10.662;2023-06-22T03:47:01;4.77;;;3.13;;
64932;SDS011;51446;53.850;10.662;2023-06-22T03:49:27;4.47;;;3.42;;
64932;SDS011;51446;53.850;10.662;2023-06-22T03:51:52;5.87;;;3.30;;
64932;SDS011;51446;53.850;10.662;2023-06-22T03:54:17;6.07;;;3.30;;
64932;SDS011;51446;53.850;10.662;2023-06-22T03:56:43;3.80;;;3.13;;
64932;SDS011;51446;53.850;10.662;2023-06-22T03:59:08;4.33;;;3.20;;
64932;SDS011;51446;53.850;10.662;2023-06-22T04:01:33;6.10;;;3.30;;
64932;SDS011;51446;53.850;10.662;2023-06-22T04:03:58;4.00;;;3.10;;
64932;SDS011;51446;53.850;10.662;2023-06-22T04:06:23;7.33;;;3.50;;
64932;SDS011;51446;53.850;10.662;2023-06-22T04:08:49;4.33;;;3.30;;
64932;SDS011;51446;53.850;10.662;2023-06-22T04:11:16;4.75;;;3.70;;
64932;SDS011;51446;53.850;10.662;2023-06-22T04:13:42;5.25;;;3.83;;
64932;SDS011;51446;53.850;10.662;2023-06-22T04:16:08;5.57;;;3.93;;
64932;SDS011;51446;53.850;10.662;2023-06-22T04:18:33;5.13;;;3.97;;
64932;SDS011;51446;53.850;10.662;2023-06-22T04:20:58;4.00;;;3.50;;
64932;SDS011;51446;53.850;10.662;2023-06-22T04:23:24;8.17;;;3.90;;
64932;SDS011;51446;53.850;10.662;2023-06-22T04:25:49;5.47;;;4.10;;
64932;SDS011;51446;53.850;10.662;2023-06-22T04:28:14;4.70;;;3.83;;
64932;SDS011;51446;53.850;10.662;2023-06-22T04:30:39;4.20;;;3.27;;
64932;SDS011;51446;53.850;10.662;2023-06-22T04:33:12;4.30;;;3.42;;
64932;SDS011;51446;53.850;10.662;2023-06-22T04:35:38;5.68;;;3.75;;
64932;SDS011;51446;53.850;10.662;2023-06-22T04:38:06;6.65;;;3.88;;
64932;SDS011;51446;53.850;10.662;2023-06-22T04:40:31;5.30;;;3.70;;
64932;SDS011;51446;53.850;10.662;2023-06-22T04:42:56;7.03;;;4.07;;
64932;SDS011;51446;53.850;10.662;2023-06-22T04:45:22;5.97;;;4.10;;
64932;SDS011;51446;53.850;10.662;2023-06-22T04:47:47;6.60;;;4.00;;
64932;SDS011;51446;53.850;10.662;2023-06-22T04:50:12;5.53;;;3.63;;
64932;SDS011;51446;53.850;10.662;2023-06-22T04:52:38;6.50;;;3.30;;
64932;SDS011;51446;53.850;10.662;2023-06-22T04:55:03;6.78;;;3.75;;
64932;SDS011;51446;53.850;10.662;2023-06-22T04:57:29;8.50;;;4.20;;
64932;SDS011;51446;53.850;10.662;2023-06-22T05:00:01;7.90;;;4.63;;
64932;SDS011;51446;53.850;10.662;2023-06-22T05:02:26;6.85;;;5.05;;
64932;SDS011;51446;53.850;10.662;2023-06-22T05:04:52;6.90;;;4.70;;
64932;SDS011;51446;53.850;10.662;2023-06-22T05:07:21;6.75;;;4.78;;
64932;SDS011;51446;53.850;10.662;2023-06-22T05:09:50;7.50;;;5.57;;
64932;SDS011;51446;53.850;10.662;2023-06-22T05:12:15;8.13;;;4.80;;
64932;SDS011;51446;53.850;10.662;2023-06-22T05:14:41;8.33;;;4.80;;
64932;SDS011;51446;53.850;10.662;2023-06-22T05:17:06;7.83;;;4.70;;
64932;SDS011;51446;53.850;10.662;2023-06-22T05:19:38;12.03;;;4.80;;
64932;SDS011;51446;53.850;10.662;2023-06-22T05:22:03;8.27;;;4.70;;
64932;SDS011;51446;53.850;10.662;2023-06-22T05:24:29;8.30;;;4.47;;
64932;SDS011;51446;53.850;10.662;2023-06-22T05:26:54;10.30;;;5.07;;
64932;SDS011;51446;53.850;10.662;2023-06-22T05:29:20;8.63;;;5.00;;
64932;SDS011;51446;53.850;10.662;2023-06-22T05:31:47;9.53;;;5.33;;
64932;SDS011;51446;53.850;10.662;2023-06-22T05:34:12;8.43;;;4.50;;
64932;SDS011;51446;53.850;10.662;2023-06-22T05:36:38;9.23;;;5.60;;
64932;SDS011;51446;53.850;10.662;2023-06-22T05:39:10;10.50;;;5.97;;
64932;SDS011;51446;53.850;10.662;2023-06-22T05:41:38;11.55;;;6.15;;
64932;SDS011;51446;53.850;10.662;2023-06-22T05:44:03;9.17;;;5.40;;
64932;SDS011;51446;53.850;10.662;2023-06-22T05:46:29;10.10;;;5.83;;
64932;SDS011;51446;53.850;10.662;2023-06-22T05:48:54;11.67;;;5.40;;
64932;SDS011;51446;53.850;10.662;2023-06-22T05:51:19;9.87;;;5.73;;
64932;SDS011;51446;53.850;10.662;2023-06-22T05:53:44;9.23;;;4.93;;
64932;SDS011;51446;53.850;10.662;2023-06-22T05:56:14;11.88;;;4.78;;
64932;SDS011;51446;53.850;10.662;2023-06-22T05:58:39;9.50;;;5.17;;
64932;SDS011;51446;53.850;10.662;2023-06-22T06:01:04;6.70;;;4.90;;
64932;SDS011;51446;53.850;10.662;2023-06-22T06:03:30;12.33;;;5.07;;
64932;SDS011;51446;53.850;10.662;2023-06-22T06:05:55;6.73;;;4.70;;
64932;SDS011;51446;53.850;10.662;2023-06-22T06:08:20;7.53;;;5.00;;
64932;SDS011;51446;53.850;10.662;2023-06-22T06:10:46;13.00;;;4.87;;
64932;SDS011;51446;53.850;10.662;2023-06-22T06:13:11;21.23;;;5.40;;
64932;SDS011;51446;53.850;10.662;2023-06-22T06:15:37;11.47;;;4.60;;
64932;SDS011;51446;53.850;10.662;2023-06-22T06:18:02;8.50;;;4.30;;
64932;SDS011;51446;53.850;10.662;2023-06-22T06:20:30;5.47;;;3.75;;
64932;SDS011;51446;53.850;10.662;2023-06-22T06:22:55;6.63;;;3.73;;
64932;SDS011;51446;53.850;10.662;2023-06-22T06:25:21;6.97;;;3.97;;
64932;SDS011;51446;53.850;10.662;2023-06-22T06:27:47;7.28;;;2.85;;
64932;SDS011;51446;53.850;10.662;2023-06-22T06:30:14;5.97;;;2.75;;
64932;SDS011;51446;53.850;10.662;2023-06-22T06:32:41;5.03;;;3.13;;
64932;SDS011;51446;53.850;10.662;2023-06-22T06:35:07;5.28;;;3.00;;
64932;SDS011;51446;53.850;10.662;2023-06-22T06:37:37;5.35;;;2.38;;
64932;SDS011;51446;53.850;10.662;2023-06-22T06:40:03;5.85;;;2.35;;
64932;SDS011;51446;53.850;10.662;2023-06-22T06:42:31;2.78;;;1.70;;
64932;SDS011;51446;53.850;10.662;2023-06-22T06:44:57;4.93;;;1.90;;
64932;SDS011;51446;53.850;10.662;2023-06-22T06:47:22;3.20;;;1.83;;
64932;SDS011;51446;53.850;10.662;2023-06-22T06:49:47;3.00;;;1.50;;
64932;SDS011;51446;53.850;10.662;2023-06-22T06:52:12;2.30;;;1.80;;
64932;SDS011;51446;53.850;10.662;2023-06-22T06:54:38;2.73;;;1.40;;
64932;SDS011;51446;53.850;10.662;2023-06-22T06:57:03;5.37;;;1.63;;
64932;SDS011;51446;53.850;10.662;2023-06-22T06:59:29;2.43;;;1.60;;
64932;SDS011;51446;53.850;10.662;2023-06-22T07:01:55;4.25;;;1.83;;
64932;SDS011;51446;53.850;10.662;2023-06-22T07:04:20;4.57;;;1.85;;
64932;SDS011;51446;53.850;10.662;2023-06-22T07:06:46;4.20;;;2.10;;
64932;SDS011;51446;53.850;10.662;2023-06-22T07:09:11;2.90;;;1.90;;
64932;SDS011;51446;53.850;10.662;2023-06-22T07:11:36;3.00;;;2.00;;
64932;SDS011;51446;53.850;10.662;2023-06-22T07:14:01;3.50;;;2.20;;
64932;SDS011;51446;53.850;10.662;2023-06-22T07:16:27;3.60;;;1.77;;
64932;SDS011;51446;53.850;10.662;2023-06-22T07:18:54;3.95;;;1.70;;
64932;SDS011;51446;53.850;10.662;2023-06-22T07:21:19;3.28;;;1.88;;
64932;SDS011;51446;53.850;10.662;2023-06-22T07:23:44;3.67;;;2.00;;
64932;SDS011;51446;53.850;10.662;2023-06-22T07:26:10;2.33;;;1.70;;
64932;SDS011;51446;53.850;10.662;2023-06-22T07:28:37;2.65;;;1.90;;
64932;SDS011;51446;53.850;10.662;2023-06-22T07:31:02;3.77;;;1.67;;
64932;SDS011;51446;53.850;10.662;2023-06-22T07:33:29;2.72;;;1.63;;
64932;SDS011;51446;53.850;10.662;2023-06-22T07:35:54;3.53;;;1.80;;
64932;SDS011;51446;53.850;10.662;2023-06-22T07:38:19;2.40;;;1.57;;
64932;SDS011;51446;53.850;10.662;2023-06-22T07:40:45;2.97;;;1.97;;
64932;SDS011;51446;53.850;10.662;2023-06-22T07:43:10;1.97;;;1.70;;
64932;SDS011;51446;53.850;10.662;2023-06-22T07:45:37;3.80;;;1.73;;
64932;SDS011;51446;53.850;10.662;2023-06-22T07:48:05;2.43;;;1.50;;
64932;SDS011;51446;53.850;10.662;2023-06-22T07:50:30;2.93;;;1.70;;
64932;SDS011;51446;53.850;10.662;2023-06-22T07:52:56;3.80;;;1.77;;
64932;SDS011;51446;53.850;10.662;2023-06-22T07:55:21;4.13;;;1.73;;
64932;SDS011;51446;53.850;10.662;2023-06-22T07:57:47;1.93;;;1.47;;
64932;SDS011;51446;53.850;10.662;2023-06-22T08:00:13;3.85;;;1.75;;
64932;SDS011;51446;53.850;10.662;2023-06-22T08:02:40;3.85;;;1.58;;
64932;SDS011;51446;53.850;10.662;2023-06-22T08:05:07;3.85;;;1.85;;
64932;SDS011;51446;53.850;10.662;2023-06-22T08:07:37;3.13;;;1.92;;
64932;SDS011;51446;53.850;10.662;2023-06-22T08:10:09;3.33;;;1.53;;
64932;SDS011;51446;53.850;10.662;2023-06-22T08:12:36;2.70;;;1.70;;
64932;SDS011;51446;53.850;10.662;2023-06-22T08:15:01;3.53;;;1.87;;
64932;SDS011;51446;53.850;10.662;2023-06-22T08:17:26;4.77;;;2.07;;
64932;SDS011;51446;53.850;10.662;2023-06-22T08:19:51;4.47;;;2.00;;
64932;SDS011;51446;53.850;10.662;2023-06-22T08:22:17;3.40;;;1.87;;
64932;SDS011;51446;53.850;10.662;2023-06-22T08:24:43;3.73;;;2.13;;
64932;SDS011;51446;53.850;10.662;2023-06-22T08:27:10;2.65;;;1.77;;
64932;SDS011;51446;53.850;10.662;2023-06-22T08:29:36;6.90;;;2.10;;
64932;SDS011;51446;53.850;10.662;2023-06-22T08:32:02;3.38;;;1.70;;
64932;SDS011;51446;53.850;10.662;2023-06-22T08:34:28;4.97;;;2.10;;
64932;SDS011;51446;53.850;10.662;2023-06-22T08:36:53;3.97;;;1.73;;
64932;SDS011;51446;53.850;10.662;2023-06-22T08:39:19;5.50;;;2.10;;
64932;SDS011;51446;53.850;10.662;2023-06-22T08:41:45;3.85;;;1.60;;
64932;SDS011;51446;53.850;10.662;2023-06-22T08:44:13;3.03;;;1.60;;
64932;SDS011;51446;53.850;10.662;2023-06-22T08:46:38;3.90;;;1.60;;
64932;SDS011;51446;53.850;10.662;2023-06-22T08:49:05;5.23;;;1.40;;
64932;SDS011;51446;53.850;10.662;2023-06-22T08:51:31;4.30;;;1.95;;
64932;SDS011;51446;53.850;10.662;2023-06-22T08:53:56;4.23;;;1.60;;
64932;SDS011;51446;53.850;10.662;2023-06-22T08:56:21;2.77;;;1.73;;
64932;SDS011;51446;53.850;10.662;2023-06-22T08:58:47;2.25;;;1.40;;
64932;SDS011;51446;53.850;10.662;2023-06-22T09:01:12;5.87;;;1.50;;
64932;SDS011;51446;53.850;10.662;2023-06-22T09:03:37;3.83;;;1.50;;
64932;SDS011;51446;53.850;10.662;2023-06-22T09:06:03;5.13;;;1.77;;
64932;SDS011;51446;53.850;10.662;2023-06-22T09:08:28;2.50;;;1.77;;
64932;SDS011;51446;53.850;10.662;2023-06-22T09:10:54;3.57;;;1.60;;
64932;SDS011;51446;53.850;10.662;2023-06-22T09:13:19;2.83;;;1.40;;
64932;SDS011;51446;53.850;10.662;2023-06-22T09:15:44;2.07;;;1.27;;
64932;SDS011;51446;53.850;10.662;2023-06-22T09:18:10;2.87;;;1.40;;
64932;SDS011;51446;53.850;10.662;2023-06-22T09:20:36;3.28;;;1.40;;
64932;SDS011;51446;53.850;10.662;2023-06-22T09:23:01;2.80;;;1.57;;
64932;SDS011;51446;53.850;10.662;2023-06-22T09:25:26;4.77;;;1.30;;
64932;SDS011;51446;53.850;10.662;2023-06-22T09:27:52;2.30;;;1.30;;
64932;SDS011;51446;53.850;10.662;2023-06-22T09:30:17;2.03;;;1.20;;
64932;SDS011;51446;53.850;10.662;2023-06-22T09:32:42;2.60;;;1.20;;
64932;SDS011;51446;53.850;10.662;2023-06-22T09:35:08;2.42;;;1.42;;
64932;SDS011;51446;53.850;10.662;2023-06-22T09:37:34;2.75;;;1.10;;
64932;SDS011;51446;53.850;10.662;2023-06-22T09:40:00;2.73;;;0.97;;
64932;SDS011;51446;53.850;10.662;2023-06-22T09:42:26;4.82;;;1.20;;
64932;SDS011;51446;53.850;10.662;2023-06-22T09:44:51;2.07;;;1.40;;
64932;SDS011;51446;53.850;10.662;2023-06-22T09:47:16;1.80;;;1.10;;
64932;SDS011;51446;53.850;10.662;2023-06-22T09:49:41;5.20;;;1.50;;
64932;SDS011;51446;53.850;10.662;2023-06-22T09:52:07;2.07;;;1.30;;
64932;SDS011;51446;53.850;10.662;2023-06-22T09:54:36;1.95;;;1.25;;
64932;SDS011;51446;53.850;10.662;2023-06-22T09:57:01;2.37;;;1.27;;
64932;SDS011;51446;53.850;10.662;2023-06-22T09:59:27;1.73;;;1.00;;
64932;SDS011;51446;53.850;10.662;2023-06-22T10:01:52;3.23;;;1.30;;
64932;SDS011;51446;53.850;10.662;2023-06-22T10:04:17;3.73;;;1.30;;
64932;SDS011;51446;53.850;10.662;2023-06-22T10:06:42;3.90;;;1.47;;
64932;SDS011;51446;53.850;10.662;2023-06-22T10:09:08;2.47;;;1.23;;
64932;SDS011;51446;53.850;10.662;2023-06-22T10:11:33;1.43;;;1.20;;
64932;SDS011;51446;53.850;10.662;2023-06-22T10:14:00;3.22;;;1.38;;
64932;SDS011;51446;53.850;10.662;2023-06-22T10:16:30;4.43;;;1.60;;
64932;SDS011;51446;53.850;10.662;2023-06-22T10:18:56;3.20;;;1.48;;
64932;SDS011;51446;53.850;10.662;2023-06-22T10:21:21;3.33;;;1.63;;
64932;SDS011;51446;53.850;10.662;2023-06-22T10:23:46;5.07;;;1.50;;
64932;SDS011;51446;53.850;10.662;2023-06-22T10:26:11;3.47;;;1.70;;
64932;SDS011;51446;53.850;10.662;2023-06-22T10:28:37;2.33;;;1.30;;
64932;SDS011;51446;53.850;10.662;2023-06-22T10:31:02;3.57;;;1.40;;
64932;SDS011;51446;53.850;10.662;2023-06-22T10:33:27;4.07;;;1.60;;
64932;SDS011;51446;53.850;10.662;2023-06-22T10:35:52;2.53;;;1.30;;
64932;SDS011;51446;53.850;10.662;2023-06-22T10:38:18;3.13;;;1.40;;
64932;SDS011;51446;53.850;10.662;2023-06-22T10:40:43;1.77;;;1.40;;
64932;SDS011;51446;53.850;10.662;2023-06-22T10:43:08;2.80;;;1.60;;
64932;SDS011;51446;53.850;10.662;2023-06-22T10:45:33;2.80;;;1.67;;
64932;SDS011;51446;53.850;10.662;2023-06-22T10:47:59;2.63;;;1.70;;
64932;SDS011;51446;53.850;10.662;2023-06-22T10:50:24;3.07;;;1.73;;
64932;SDS011;51446;53.850;10.662;2023-06-22T10:52:50;4.75;;;2.30;;
64932;SDS011;51446;53.850;10.662;2023-06-22T10:55:15;3.60;;;1.97;;
64932;SDS011;51446;53.850;10.662;2023-06-22T10:57:41;2.93;;;1.83;;
64932;SDS011;51446;53.850;10.662;2023-06-22T11:00:09;3.75;;;1.45;;
64932;SDS011;51446;53.850;10.662;2023-06-22T11:02:36;3.70;;;1.80;;
64932;SDS011;51446;53.850;10.662;2023-06-22T11:05:01;3.43;;;1.60;;
64932;SDS011;51446;53.850;10.662;2023-06-22T11:07:28;3.97;;;1.40;;
64932;SDS011;51446;53.850;10.662;2023-06-22T11:09:54;2.47;;;1.60;;
64932;SDS011;51446;53.850;10.662;2023-06-22T11:12:19;2.47;;;1.53;;
64932;SDS011;51446;53.850;10.662;2023-06-22T11:14:44;5.03;;;1.77;;
64932;SDS011;51446;53.850;10.662;2023-06-22T11:17:09;3.55;;;1.70;;
64932;SDS011;51446;53.850;10.662;2023-06-22T11:19:35;3.30;;;1.50;;
64932;SDS011;51446;53.850;10.662;2023-06-22T11:22:01;2.80;;;1.90;;
64932;SDS011;51446;53.850;10.662;2023-06-22T11:24:26;2.85;;;1.63;;
64932;SDS011;51446;53.850;10.662;2023-06-22T11:26:51;7.20;;;1.60;;
64932;SDS011;51446;53.850;10.662;2023-06-22T11:29:17;4.27;;;1.97;;
64932;SDS011;51446;53.850;10.662;2023-06-22T11:31:42;6.30;;;1.80;;
64932;SDS011;51446;53.850;10.662;2023-06-22T11:34:08;5.35;;;1.98;;
64932;SDS011;51446;53.850;10.662;2023-06-22T11:36:33;2.97;;;1.70;;
64932;SDS011;51446;53.850;10.662;2023-06-22T11:39:00;3.03;;;2.20;;
64932;SDS011;51446;53.850;10.662;2023-06-22T11:41:26;3.33;;;2.07;;
64932;SDS011;51446;53.850;10.662;2023-06-22T11:43:51;4.23;;;1.90;;
64932;SDS011;51446;53.850;10.662;2023-06-22T11:46:16;3.97;;;1.77;;
64932;SDS011;51446;53.850;10.662;2023-06-22T11:48:41;3.43;;;1.97;;
64932;SDS011;51446;53.850;10.662;2023-06-22T11:51:07;4.57;;;1.90;;
64932;SDS011;51446;53.850;10.662;2023-06-22T11:53:33;3.10;;;1.87;;
64932;SDS011;51446;53.850;10.662;2023-06-22T11:55:59;2.97;;;1.80;;
64932;SDS011;51446;53.850;10.662;2023-06-22T11:58:25;5.15;;;2.33;;
64932;SDS011;51446;53.850;10.662;2023-06-22T12:00:50;4.57;;;2.30;;
64932;SDS011;51446;53.850;10.662;2023-06-22T12:03:16;2.95;;;1.90;;
64932;SDS011;51446;53.850;10.662;2023-06-22T12:05:42;5.83;;;2.27;;
64932;SDS011;51446;53.850;10.662;2023-06-22T12:08:07;4.33;;;2.00;;
64932;SDS011;51446;53.850;10.662;2023-06-22T12:10:32;3.80;;;2.33;;
64932;SDS011;51446;53.850;10.662;2023-06-22T12:12:58;4.77;;;2.00;;
64932;SDS011;51446;53.850;10.662;2023-06-22T12:15:24;6.80;;;2.45;;
64932;SDS011;51446;53.850;10.662;2023-06-22T12:17:50;4.80;;;2.40;;
64932;SDS011;51446;53.850;10.662;2023-06-22T12:20:15;3.90;;;1.87;;
64932;SDS011;51446;53.850;10.662;2023-06-22T12:22:41;4.97;;;2.10;;
64932;SDS011;51446;53.850;10.662;2023-06-22T12:25:07;3.63;;;1.70;;
64932;SDS011;51446;53.850;10.662;2023-06-22T12:27:33;3.72;;;2.03;;
64932;SDS011;51446;53.850;10.662;2023-06-22T12:29:58;5.75;;;1.60;;
64932;SDS011;51446;53.850;10.662;2023-06-22T12:32:24;3.07;;;1.60;;
64932;SDS011;51446;53.850;10.662;2023-06-22T12:34:50;5.50;;;1.67;;
64932;SDS011;51446;53.850;10.662;2023-06-22T12:37:15;2.40;;;1.50;;
64932;SDS011;51446;53.850;10.662;2023-06-22T12:39:40;3.20;;;1.90;;
64932;SDS011;51446;53.850;10.662;2023-06-22T12:42:06;3.67;;;1.60;;
64932;SDS011;51446;53.850;10.662;2023-06-22T12:44:33;2.47;;;1.50;;
64932;SDS011;51446;53.850;10.662;2023-06-22T12:46:59;4.63;;;1.70;;
64932;SDS011;51446;53.850;10.662;2023-06-22T12:49:24;3.90;;;1.80;;
64932;SDS011;51446;53.850;10.662;2023-06-22T12:51:49;2.77;;;1.73;;
64932;SDS011;51446;53.850;10.662;2023-06-22T12:54:14;3.07;;;1.70;;
64932;SDS011;51446;53.850;10.662;2023-06-22T12:56:40;4.27;;;1.90;;
64932;SDS011;51446;53.850;10.662;2023-06-22T12:59:05;4.30;;;1.87;;
64932;SDS011;51446;53.850;10.662;2023-06-22T13:01:31;4.83;;;1.90;;
64932;SDS011;51446;53.850;10.662;2023-06-22T13:03:57;2.92;;;1.90;;
64932;SDS011;51446;53.850;10.662;2023-06-22T13:06:23;3.30;;;1.73;;
64932;SDS011;51446;53.850;10.662;2023-06-22T13:08:48;3.73;;;1.93;;
64932;SDS011;51446;53.850;10.662;2023-06-22T13:11:13;2.50;;;1.80;;
64932;SDS011;51446;53.850;10.662;2023-06-22T13:13:39;4.27;;;1.73;;
64932;SDS011;51446;53.850;10.662;2023-06-22T13:16:05;2.92;;;1.80;;
64932;SDS011;51446;53.850;10.662;2023-06-22T13:18:30;5.23;;;1.87;;
64932;SDS011;51446;53.850;10.662;2023-06-22T13:20:55;2.33;;;1.60;;
64932;SDS011;51446;53.850;10.662;2023-06-22T13:23:21;4.83;;;1.60;;
64932;SDS011;51446;53.850;10.662;2023-06-22T13:25:46;2.45;;;1.65;;
64932;SDS011;51446;53.850;10.662;2023-06-22T13:28:12;2.43;;;1.60;;
64932;SDS011;51446;53.850;10.662;2023-06-22T13:30:38;4.57;;;1.85;;
64932;SDS011;51446;53.850;10.662;2023-06-22T13:33:05;3.03;;;1.80;;
64932;SDS011;51446;53.850;10.662;2023-06-22T13:35:30;1.90;;;1.63;;
64932;SDS011;51446;53.850;10.662;2023-06-22T13:37:55;5.47;;;2.00;;
64932;SDS011;51446;53.850;10.662;2023-06-22T13:40:20;2.53;;;1.40;;
64932;SDS011;51446;53.850;10.662;2023-06-22T13:42:46;6.93;;;1.60;;
64932;SDS011;51446;53.850;10.662;2023-06-22T13:45:11;2.23;;;1.73;;
64932;SDS011;51446;53.850;10.662;2023-06-22T13:47:37;4.93;;;1.67;;
64932;SDS011;51446;53.850;10.662;2023-06-22T13:50:02;3.40;;;2.20;;
64932;SDS011;51446;53.850;10.662;2023-06-22T13:52:28;3.20;;;1.80;;
64932;SDS011;51446;53.850;10.662;2023-06-22T13:54:53;4.35;;;1.70;;
64932;SDS011;51446;53.850;10.662;2023-06-22T13:57:18;4.73;;;2.00;;
64932;SDS011;51446;53.850;10.662;2023-06-22T13:59:44;6.07;;;1.73;;
64932;SDS011;51446;53.850;10.662;2023-06-22T14:02:09;2.40;;;1.60;;
64932;SDS011;51446;53.850;10.662;2023-06-22T14:04:34;3.07;;;1.80;;
64932;SDS011;51446;53.850;10.662;2023-06-22T14:06:59;2.97;;;1.30;;
64932;SDS011;51446;53.850;10.662;2023-06-22T14:09:25;2.77;;;1.40;;
64932;SDS011;51446;53.850;10.662;2023-06-22T14:11:50;2.07;;;1.50;;
64932;SDS011;51446;53.850;10.662;2023-06-22T14:14:15;2.90;;;1.60;;
64932;SDS011;51446;53.850;10.662;2023-06-22T14:16:41;3.03;;;1.47;;
64932;SDS011;51446;53.850;10.662;2023-06-22T14:19:06;3.80;;;1.80;;
64932;SDS011;51446;53.850;10.662;2023-06-22T14:21:31;3.00;;;1.70;;
64932;SDS011;51446;53.850;10.662;2023-06-22T14:23:56;4.07;;;1.70;;
64932;SDS011;51446;53.850;10.662;2023-06-22T14:26:22;3.93;;;1.73;;
64932;SDS011;51446;53.850;10.662;2023-06-22T14:28:47;2.20;;;1.80;;
64932;SDS011;51446;53.850;10.662;2023-06-22T14:31:16;3.58;;;1.70;;